Francesville, Indiana
Current Conditions -  °F | °C
As of 9:15 AM on Wednesday 22 Oct 2014 (Local Time) from KRZL Reporting Station
Clear Clear  
Wind Chill:   Ceiling: Unl
Heat Index:   Visibility: 10mi
Dew Point:   Wind: 8mph
Humidity: 93%   Direction: 80°E
Pressure: 30.36"   Gusts: NA
Location:  40.99°N, 86.88°W
Report Text: KRZL 221415Z AUTO 08007KT 10SM CLR 06/05 A3036 RMK AO2
Loading
Personal Weather Stations






























Interactive Weather Map
Tropical Storm Tracking
New forecast layout! Learn more

10-Day Weather Forecast

Advertisements
Track Severe Weather on mobile